createdAt,value
2022-09-13T00:02:12.372Z,81.89
2022-09-13T00:04:36.045Z,82.91
2022-09-13T00:07:01.128Z,82.77
2022-09-13T00:09:24.803Z,83.53
2022-09-13T00:11:48.521Z,82.97
2022-09-13T00:14:12.195Z,82.34
2022-09-13T00:16:35.960Z,82.22
2022-09-13T00:19:01.274Z,83.50
2022-09-13T00:21:26.120Z,81.58
2022-09-13T00:23:53.702Z,85.03
2022-09-13T00:26:20.057Z,85.33
2022-09-13T00:28:45.563Z,83.68
2022-09-13T00:31:11.006Z,82.93
2022-09-13T00:33:35.268Z,83.04
2022-09-13T00:35:59.178Z,82.95
2022-09-13T00:38:22.850Z,82.46
2022-09-13T00:40:47.910Z,83.41
2022-09-13T00:43:20.575Z,85.43
2022-09-13T00:45:45.068Z,83.27
2022-09-13T00:48:16.916Z,82.77
2022-09-13T00:50:44.522Z,82.60
2022-09-13T00:53:13.696Z,82.00
2022-09-13T00:55:44.340Z,81.84
2022-09-13T00:58:16.070Z,82.76
2022-09-13T01:00:41.108Z,82.15
2022-09-13T01:03:09.229Z,83.29
2022-09-13T01:05:41.528Z,82.14
2022-09-13T01:08:22.987Z,82.50
2022-09-13T01:10:51.086Z,81.98
2022-09-13T01:13:20.141Z,81.94
2022-09-13T01:15:44.240Z,82.65
2022-09-13T01:18:09.166Z,83.30
2022-09-13T01:21:12.855Z,82.96
2022-09-13T01:24:17.167Z,81.80
2022-09-13T01:27:15.805Z,82.41
2022-09-13T01:30:20.928Z,83.04
2022-09-13T01:33:13.548Z,83.64
2022-09-13T01:35:51.905Z,82.54
2022-09-13T01:38:31.967Z,84.63
2022-09-13T01:41:09.213Z,85.73
2022-09-13T01:43:45.643Z,86.41
2022-09-13T01:46:18.715Z,85.84
2022-09-13T01:48:57.989Z,86.95
2022-09-13T01:51:30.672Z,87.29
2022-09-13T01:54:11.930Z,85.03
2022-09-13T01:56:44.141Z,84.08
2022-09-13T01:59:20.054Z,84.19
2022-09-13T02:01:52.385Z,85.75
2022-09-13T02:04:19.918Z,83.85
2022-09-13T02:06:51.809Z,83.34
2022-09-13T02:09:21.554Z,83.40
2022-09-13T02:11:49.994Z,83.82
2022-09-13T02:14:18.330Z,83.20
2022-09-13T02:16:49.421Z,82.38
2022-09-13T02:19:19.121Z,86.57
2022-09-13T02:21:47.953Z,84.27
2022-09-13T02:24:17.064Z,84.36
2022-09-13T02:26:45.647Z,86.45
2022-09-13T02:29:13.866Z,84.41
2022-09-13T02:31:44.596Z,83.46
2022-09-13T02:34:16.665Z,84.49
2022-09-13T02:36:43.094Z,84.39
2022-09-13T02:39:13.572Z,84.91
2022-09-13T02:41:49.384Z,85.02
2022-09-13T02:44:17.650Z,85.50
2022-09-13T02:47:01.556Z,86.57
2022-09-13T02:49:33.183Z,86.08
2022-09-13T02:52:02.592Z,85.27
2022-09-13T02:54:34.383Z,86.17
2022-09-13T02:57:04.390Z,84.72
2022-09-13T02:59:28.449Z,84.35
2022-09-13T03:01:59.639Z,84.16
2022-09-13T03:04:23.455Z,85.26
2022-09-13T03:06:50.513Z,84.84
2022-09-13T03:09:14.497Z,85.74
2022-09-13T03:11:57.171Z,85.49
2022-09-13T03:14:34.430Z,85.38
2022-09-13T03:17:16.648Z,85.27
2022-09-13T03:20:09.750Z,85.75
2022-09-13T03:23:16.587Z,84.68
2022-09-13T03:26:02.355Z,86.21
2022-09-13T03:28:36.949Z,85.51
2022-09-13T03:31:09.933Z,86.05
2022-09-13T03:33:45.682Z,84.53
2022-09-13T03:36:16.520Z,86.70
2022-09-13T03:38:47.128Z,86.63
2022-09-13T03:41:16.569Z,87.18
2022-09-13T03:43:45.529Z,88.17
2022-09-13T03:46:13.684Z,88.98
2022-09-13T03:48:40.526Z,88.33
2022-09-13T03:51:04.350Z,89.00
2022-09-13T03:53:30.656Z,88.64
2022-09-13T03:55:55.802Z,90.01
2022-09-13T03:58:21.792Z,88.13
2022-09-13T04:00:46.222Z,86.92
2022-09-13T04:03:10.186Z,89.31
2022-09-13T04:05:34.596Z,91.72
2022-09-13T04:07:58.378Z,90.67
2022-09-13T04:10:24.281Z,90.95
2022-09-13T04:12:49.515Z,89.25
2022-09-13T04:15:13.201Z,88.97
2022-09-13T04:17:37.100Z,89.57
2022-09-13T04:20:00.749Z,88.75
2022-09-13T04:22:24.464Z,88.71
2022-09-13T04:24:48.238Z,89.21
2022-09-13T04:27:12.378Z,89.53
2022-09-13T04:29:37.390Z,89.47
2022-09-13T04:32:01.879Z,90.63
2022-09-13T04:34:25.641Z,90.52
2022-09-13T04:36:49.404Z,90.50
2022-09-13T04:39:14.102Z,90.60
2022-09-13T04:41:37.687Z,89.60
2022-09-13T04:44:01.378Z,91.38
2022-09-13T04:46:26.355Z,91.26
2022-09-13T04:48:53.501Z,90.84
2022-09-13T04:51:17.594Z,92.27
2022-09-13T04:53:41.147Z,92.66
2022-09-13T04:56:06.406Z,91.15
2022-09-13T04:58:30.092Z,91.32
2022-09-13T05:00:56.781Z,91.51
2022-09-13T05:03:21.806Z,90.70
2022-09-13T05:05:45.408Z,90.98
2022-09-13T05:08:08.954Z,90.91
2022-09-13T05:10:32.514Z,90.29
2022-09-13T05:12:56.069Z,89.29
2022-09-13T05:15:19.691Z,88.45
2022-09-13T05:17:43.312Z,88.81
2022-09-13T05:20:09.833Z,87.91
2022-09-13T05:22:33.514Z,88.45
2022-09-13T05:24:57.059Z,87.98
2022-09-13T05:27:20.609Z,87.63
2022-09-13T05:29:44.220Z,87.37
2022-09-13T05:32:07.776Z,88.55
2022-09-13T05:34:31.439Z,88.06
2022-09-13T05:36:56.439Z,88.29
2022-09-13T05:39:36.462Z,88.09
2022-09-13T05:42:06.025Z,88.64
2022-09-13T05:44:29.518Z,88.10
2022-09-13T05:46:53.093Z,87.70
2022-09-13T05:49:17.328Z,89.19
2022-09-13T05:51:41.267Z,87.34
2022-09-13T05:54:06.362Z,88.28
2022-09-13T05:56:32.179Z,88.94
2022-09-13T05:58:56.451Z,88.20
2022-09-13T06:01:23.168Z,89.20
2022-09-13T06:03:49.451Z,90.29
2022-09-13T06:06:13.153Z,89.50
2022-09-13T06:08:37.644Z,91.09
2022-09-13T06:11:05.566Z,90.98
2022-09-13T06:13:29.981Z,91.81
2022-09-13T06:15:54.418Z,91.22
2022-09-13T06:18:18.097Z,91.39
2022-09-13T06:20:41.655Z,92.09
2022-09-13T06:23:05.209Z,93.02
2022-09-13T06:25:28.795Z,94.04
2022-09-13T06:27:53.816Z,95.56
2022-09-13T06:30:17.514Z,95.67
2022-09-13T06:32:41.049Z,96.50
2022-09-13T06:35:04.705Z,95.57
2022-09-13T06:37:28.330Z,95.80
2022-09-13T06:39:51.895Z,98.17
2022-09-13T06:42:15.530Z,98.22
2022-09-13T06:44:40.762Z,96.78
2022-09-13T06:47:04.260Z,95.84
2022-09-13T06:49:29.278Z,97.58
2022-09-13T06:51:52.837Z,96.00
2022-09-13T06:54:16.411Z,95.42
2022-09-13T06:56:40.534Z,96.41
2022-09-13T06:59:07.473Z,95.49
2022-09-13T07:01:35.050Z,95.73
2022-09-13T07:04:03.955Z,94.96
2022-09-13T07:06:29.742Z,95.57
2022-09-13T07:08:54.900Z,95.20
2022-09-13T07:11:20.951Z,96.36
2022-09-13T07:13:44.599Z,95.21
2022-09-13T07:16:10.390Z,94.75
2022-09-13T07:18:35.610Z,94.71
2022-09-13T07:21:04.554Z,95.73
2022-09-13T07:23:28.103Z,93.99
2022-09-13T07:26:01.878Z,93.72
2022-09-13T07:28:27.481Z,93.98
2022-09-13T07:30:51.412Z,94.37
2022-09-13T07:33:15.069Z,94.19
2022-09-13T07:35:40.011Z,93.07
2022-09-13T07:38:03.568Z,95.26
2022-09-13T07:40:27.103Z,92.26
2022-09-13T07:42:50.714Z,93.32
2022-09-13T07:45:15.245Z,93.85
2022-09-13T07:47:38.813Z,92.47
2022-09-13T07:50:02.323Z,90.84
2022-09-13T07:52:27.297Z,93.00
2022-09-13T07:54:50.801Z,90.97
2022-09-13T07:57:14.413Z,89.70
2022-09-13T07:59:38.849Z,90.90
2022-09-13T08:02:02.566Z,89.15
2022-09-13T08:04:27.304Z,90.07
2022-09-13T08:06:51.065Z,89.66
2022-09-13T08:09:16.768Z,89.56
2022-09-13T08:11:41.933Z,90.33
2022-09-13T08:14:07.656Z,87.80
2022-09-13T08:16:31.870Z,89.79
2022-09-13T08:18:58.118Z,89.62
2022-09-13T08:21:22.090Z,87.95
2022-09-13T08:23:46.299Z,88.82
2022-09-13T08:26:11.470Z,89.84
2022-09-13T08:28:36.031Z,90.38
2022-09-13T08:31:06.254Z,89.81
2022-09-13T08:33:29.840Z,90.07
2022-09-13T08:35:55.604Z,89.83
2022-09-13T08:38:19.504Z,90.18
2022-09-13T08:40:50.643Z,88.35
2022-09-13T08:43:25.845Z,89.61
2022-09-13T08:45:52.182Z,91.29
2022-09-13T08:48:18.741Z,89.84
2022-09-13T08:50:45.098Z,85.89
2022-09-13T08:53:20.698Z,87.98
2022-09-13T08:55:55.290Z,87.37
2022-09-13T08:58:41.463Z,88.01
2022-09-13T09:01:10.266Z,86.83
2022-09-13T09:03:44.237Z,87.87
2022-09-13T09:06:15.961Z,84.87
2022-09-13T09:08:46.694Z,85.62
2022-09-13T09:11:19.861Z,86.11
2022-09-13T09:13:52.382Z,83.22
2022-09-13T09:16:34.973Z,82.82
2022-09-13T09:19:07.963Z,82.21
2022-09-13T09:21:33.533Z,83.01
2022-09-13T09:23:57.855Z,83.34
2022-09-13T09:26:23.873Z,83.12
2022-09-13T09:28:52.382Z,81.97
2022-09-13T09:31:23.725Z,81.86
2022-09-13T09:34:09.615Z,80.85
2022-09-13T09:36:41.079Z,80.51
2022-09-13T09:39:06.593Z,80.06
2022-09-13T09:41:33.350Z,79.50
2022-09-13T09:44:05.962Z,78.77
2022-09-13T09:46:35.482Z,78.46
2022-09-13T09:49:30.251Z,76.26
2022-09-13T09:51:56.530Z,75.01
2022-09-13T09:54:20.721Z,73.51
2022-09-13T09:56:55.310Z,74.66
2022-09-13T09:59:31.283Z,73.75
2022-09-13T10:01:58.088Z,73.31
2022-09-13T10:04:23.645Z,71.08
2022-09-13T10:06:47.797Z,70.38
2022-09-13T10:09:19.743Z,71.71
2022-09-13T10:11:48.042Z,69.75
2022-09-13T10:14:38.231Z,67.83
2022-09-13T10:17:11.143Z,70.14
2022-09-13T10:19:35.024Z,68.33
2022-09-13T10:22:05.792Z,68.44
2022-09-13T10:24:29.988Z,68.13
2022-09-13T10:26:53.555Z,66.57
2022-09-13T10:29:18.919Z,68.61
2022-09-13T10:31:50.046Z,68.08
2022-09-13T10:34:20.682Z,68.63
2022-09-13T10:36:53.938Z,68.47
2022-09-13T10:39:21.443Z,66.69
2022-09-13T10:41:52.717Z,71.22
2022-09-13T10:44:33.027Z,70.76
2022-09-13T10:47:01.185Z,69.86
2022-09-13T10:49:45.813Z,69.50
2022-09-13T10:52:35.008Z,70.66
2022-09-13T10:55:37.637Z,65.86
2022-09-13T10:58:21.703Z,67.75
2022-09-13T11:01:14.965Z,68.91
2022-09-13T11:04:00.837Z,68.27
2022-09-13T11:06:32.463Z,70.89
2022-09-13T11:09:02.889Z,68.87
2022-09-13T11:11:35.189Z,67.30
2022-09-13T11:14:31.418Z,69.05
2022-09-13T11:17:07.557Z,70.87
2022-09-13T11:20:03.815Z,70.82
2022-09-13T11:22:53.025Z,71.00
2022-09-13T11:25:40.286Z,70.07
2022-09-13T11:28:15.956Z,70.51
2022-09-13T11:31:06.188Z,71.53
2022-09-13T11:33:43.138Z,70.56
2022-09-13T11:36:41.418Z,69.70
2022-09-13T11:39:17.565Z,70.32
2022-09-13T11:41:52.791Z,71.13
2022-09-13T11:44:49.151Z,72.72
2022-09-13T11:47:24.648Z,72.41
2022-09-13T11:50:26.697Z,72.10
2022-09-13T11:53:07.539Z,71.92
2022-09-13T11:55:35.452Z,73.35
2022-09-13T11:58:04.293Z,73.72
2022-09-13T12:00:34.226Z,77.20
2022-09-13T12:03:07.879Z,75.20
2022-09-13T12:05:36.418Z,74.99
2022-09-13T12:08:06.424Z,74.71
2022-09-13T12:10:37.309Z,75.21
2022-09-13T12:13:04.309Z,75.47
2022-09-13T12:15:37.923Z,75.46
2022-09-13T12:18:08.145Z,76.35
2022-09-13T12:20:36.456Z,77.63
2022-09-13T12:23:05.011Z,76.94
2022-09-13T12:25:38.932Z,78.77
2022-09-13T12:28:14.156Z,78.19
2022-09-13T12:30:47.271Z,76.79
2022-09-13T12:33:15.326Z,79.77
2022-09-13T12:35:52.202Z,77.82
2022-09-13T12:38:44.405Z,78.07
2022-09-13T12:41:26.561Z,79.35
2022-09-13T12:44:24.380Z,76.61
2022-09-13T12:47:18.987Z,75.88
2022-09-13T12:50:01.759Z,78.70
2022-09-13T12:52:41.111Z,78.09
2022-09-13T12:56:03.165Z,75.46
2022-09-13T12:58:57.238Z,73.78
2022-09-13T13:01:23.493Z,73.50
2022-09-13T13:03:53.939Z,73.38
2022-09-13T13:06:33.458Z,73.70
2022-09-13T13:08:59.876Z,75.25
2022-09-13T13:11:28.325Z,76.05
2022-09-13T13:13:59.126Z,75.71
2022-09-13T13:16:28.879Z,75.34
2022-09-13T13:18:54.015Z,75.44
2022-09-13T13:21:38.099Z,77.07
2022-09-13T13:24:40.417Z,77.44
2022-09-13T13:27:48.647Z,77.13
2022-09-13T13:30:53.701Z,77.38
2022-09-13T13:33:24.612Z,75.12
2022-09-13T13:35:48.925Z,75.50
2022-09-13T13:38:49.419Z,75.27
2022-09-13T13:41:55.207Z,72.75
2022-09-13T13:45:07.465Z,75.24
2022-09-13T13:48:16.362Z,71.88
2022-09-13T13:51:23.049Z,73.85
2022-09-13T13:53:51.753Z,75.79
2022-09-13T13:56:32.754Z,75.18
2022-09-13T13:59:00.512Z,75.63
2022-09-13T14:01:29.914Z,74.65
2022-09-13T14:04:56.022Z,74.87
2022-09-13T14:08:25.160Z,75.27
2022-09-13T14:11:00.965Z,75.18
2022-09-13T14:13:43.861Z,74.79
2022-09-13T14:16:19.173Z,74.95
2022-09-13T14:19:28.711Z,72.73
2022-09-13T14:22:15.682Z,74.74
2022-09-13T14:24:43.173Z,74.88
2022-09-13T14:27:09.492Z,73.34
2022-09-13T14:29:33.479Z,72.77
2022-09-13T14:32:05.443Z,72.92
2022-09-13T14:34:33.436Z,72.50
2022-09-13T14:37:00.590Z,71.31
2022-09-13T14:39:24.820Z,70.99
2022-09-13T14:41:48.605Z,71.48
2022-09-13T14:44:28.433Z,70.09
2022-09-13T14:47:03.182Z,73.04
2022-09-13T14:49:34.810Z,70.12
2022-09-13T14:52:03.529Z,70.05
2022-09-13T14:54:36.691Z,69.04
2022-09-13T14:57:03.214Z,69.50
2022-09-13T14:59:31.783Z,71.37
2022-09-13T15:01:59.605Z,70.52
2022-09-13T15:04:26.112Z,70.69
2022-09-13T15:07:09.357Z,70.90
2022-09-13T15:09:34.102Z,70.19
2022-09-13T15:12:01.148Z,71.08
2022-09-13T15:14:31.108Z,72.33
2022-09-13T15:17:01.506Z,71.69
2022-09-13T15:19:37.965Z,72.12
2022-09-13T15:22:14.791Z,72.61
2022-09-13T15:24:39.370Z,71.62
2022-09-13T15:27:06.082Z,71.71
2022-09-13T15:29:34.734Z,72.48
2022-09-13T15:32:01.104Z,72.20
2022-09-13T15:34:27.601Z,72.37
2022-09-13T15:37:07.709Z,71.71
2022-09-13T15:39:45.496Z,72.03
2022-09-13T15:42:09.287Z,72.61
2022-09-13T15:44:32.916Z,73.38
2022-09-13T15:46:59.603Z,73.40
2022-09-13T15:49:26.534Z,75.28
2022-09-13T15:51:58.079Z,74.84
2022-09-13T15:54:22.860Z,74.85
2022-09-13T15:56:51.409Z,75.00
2022-09-13T15:59:16.170Z,76.27
2022-09-13T16:01:39.901Z,75.14
2022-09-13T16:04:06.201Z,75.93
2022-09-13T16:06:29.926Z,76.66
2022-09-13T16:08:53.501Z,75.29
2022-09-13T16:11:17.119Z,76.62
2022-09-13T16:13:42.200Z,74.71
2022-09-13T16:16:06.719Z,74.68
2022-09-13T16:18:30.654Z,77.09
2022-09-13T16:20:54.310Z,75.96
2022-09-13T16:23:17.965Z,76.34
2022-09-13T16:25:41.557Z,75.62
2022-09-13T16:28:05.572Z,76.32
2022-09-13T16:30:31.721Z,76.99
2022-09-13T16:32:55.372Z,76.94
2022-09-13T16:35:19.274Z,76.62
2022-09-13T16:37:44.505Z,76.40
2022-09-13T16:40:10.238Z,76.23
2022-09-13T16:42:34.139Z,76.19
2022-09-13T16:44:57.660Z,76.40
2022-09-13T16:47:22.791Z,77.51
2022-09-13T16:49:46.341Z,79.22
2022-09-13T16:52:10.327Z,77.95
2022-09-13T16:54:35.198Z,79.09
2022-09-13T16:56:59.265Z,79.67
2022-09-13T16:59:22.772Z,79.65
2022-09-13T17:01:46.611Z,77.46
2022-09-13T17:04:11.980Z,77.50
2022-09-13T17:06:35.827Z,80.80
2022-09-13T17:09:02.546Z,80.77
2022-09-13T17:11:28.740Z,79.82
2022-09-13T17:13:52.601Z,80.04
2022-09-13T17:16:27.607Z,81.89
2022-09-13T17:18:51.754Z,80.40
2022-09-13T17:21:16.999Z,81.64
2022-09-13T17:23:40.729Z,82.65
2022-09-13T17:26:04.263Z,81.85
2022-09-13T17:28:27.836Z,82.37
2022-09-13T17:30:51.427Z,83.52
2022-09-13T17:33:15.515Z,84.99
2022-09-13T17:35:39.250Z,85.06
2022-09-13T17:38:05.335Z,84.09
2022-09-13T17:40:29.629Z,85.23
2022-09-13T17:42:53.259Z,84.29
2022-09-13T17:45:17.037Z,82.67
2022-09-13T17:47:40.619Z,83.41
2022-09-13T17:50:04.489Z,85.41
2022-09-13T17:52:31.458Z,85.71
2022-09-13T17:54:59.503Z,84.49
2022-09-13T17:57:25.063Z,83.24
2022-09-13T17:59:49.587Z,82.57
2022-09-13T18:02:13.221Z,83.49
2022-09-13T18:04:36.820Z,84.96
2022-09-13T18:07:00.851Z,82.50
2022-09-13T18:09:26.986Z,83.43
2022-09-13T18:11:52.595Z,84.14
2022-09-13T18:14:19.037Z,83.96
2022-09-13T18:16:43.534Z,82.90
2022-09-13T18:19:07.338Z,82.59
2022-09-13T18:21:31.264Z,81.82
2022-09-13T18:23:58.733Z,84.24
2022-09-13T18:26:25.011Z,82.75
2022-09-13T18:28:55.994Z,82.19
2022-09-13T18:31:20.322Z,83.18
2022-09-13T18:33:44.649Z,82.95
2022-09-13T18:36:12.176Z,82.09
2022-09-13T18:38:38.856Z,82.32
2022-09-13T18:41:05.230Z,83.99
2022-09-13T18:43:28.878Z,83.68
2022-09-13T18:45:57.891Z,82.07
2022-09-13T18:48:21.459Z,81.44
2022-09-13T18:50:45.008Z,81.78
2022-09-13T18:53:08.563Z,83.60
2022-09-13T18:55:32.113Z,83.36
2022-09-13T18:57:55.648Z,83.40
2022-09-13T19:00:19.780Z,83.38
2022-09-13T19:03:08.475Z,82.03
2022-09-13T19:05:29.876Z,82.29
2022-09-13T19:07:53.462Z,82.71
2022-09-13T19:10:17.087Z,82.67
2022-09-13T19:12:40.672Z,82.65
2022-09-13T19:15:04.287Z,81.94
2022-09-13T19:17:27.900Z,82.32
2022-09-13T19:19:52.860Z,82.60
2022-09-13T19:22:16.362Z,82.40
2022-09-13T19:24:39.999Z,82.93
2022-09-13T19:27:03.722Z,81.86
2022-09-13T19:29:27.392Z,82.21
2022-09-13T19:31:52.740Z,83.10
2022-09-13T19:34:17.874Z,82.87
2022-09-13T19:36:44.296Z,82.67
2022-09-13T19:39:09.127Z,82.91
2022-09-13T19:41:33.306Z,82.86
2022-09-13T19:44:00.183Z,83.11
2022-09-13T19:46:27.703Z,82.98
2022-09-13T19:48:53.007Z,82.71
2022-09-13T19:51:18.854Z,83.35
2022-09-13T19:53:56.814Z,83.41
2022-09-13T19:56:22.789Z,83.72
2022-09-13T19:58:46.998Z,83.36
2022-09-13T20:01:16.072Z,82.71
2022-09-13T20:03:40.081Z,83.18
2022-09-13T20:06:05.398Z,83.63
2022-09-13T20:08:29.195Z,83.03
2022-09-13T20:10:54.578Z,82.43
2022-09-13T20:13:18.186Z,83.75
2022-09-13T20:15:41.776Z,83.38
2022-09-13T20:18:06.580Z,82.94
2022-09-13T20:20:31.405Z,84.14
2022-09-13T20:22:55.002Z,83.29
2022-09-13T20:25:19.434Z,84.56
2022-09-13T20:27:44.364Z,84.02
2022-09-13T20:30:11.384Z,84.08
2022-09-13T20:32:35.763Z,83.55
2022-09-13T20:34:59.346Z,84.31
2022-09-13T20:37:23.469Z,84.35
2022-09-13T20:39:48.820Z,84.21
2022-09-13T20:42:12.647Z,85.58
2022-09-13T20:44:37.839Z,83.49
2022-09-13T20:47:01.448Z,83.92
2022-09-13T20:49:25.768Z,83.89
2022-09-13T20:51:50.022Z,84.29
2022-09-13T20:54:14.423Z,84.50
2022-09-13T20:56:38.913Z,84.44
2022-09-13T20:59:03.008Z,87.57
2022-09-13T21:01:31.557Z,86.72
2022-09-13T21:03:56.734Z,86.38
2022-09-13T21:06:22.586Z,85.96
2022-09-13T21:08:49.490Z,84.08
2022-09-13T21:11:16.165Z,86.63
2022-09-13T21:13:42.001Z,85.86
2022-09-13T21:16:06.948Z,84.52
2022-09-13T21:18:32.794Z,84.58
2022-09-13T21:20:57.109Z,84.32
2022-09-13T21:23:20.675Z,84.65
2022-09-13T21:25:44.306Z,86.26
2022-09-13T21:28:07.882Z,87.45
2022-09-13T21:30:31.414Z,86.86
2022-09-13T21:32:55.048Z,87.31
2022-09-13T21:35:20.707Z,86.44
2022-09-13T21:37:44.263Z,85.61
2022-09-13T21:40:09.397Z,86.92
2022-09-13T21:42:33.135Z,86.00
2022-09-13T21:44:58.376Z,84.70
2022-09-13T21:47:21.987Z,84.60
2022-09-13T21:49:45.528Z,84.35
2022-09-13T21:52:10.665Z,85.94
2022-09-13T21:54:34.200Z,86.27
2022-09-13T21:56:58.187Z,85.16
2022-09-13T21:59:23.663Z,84.92
2022-09-13T22:01:50.465Z,85.20
2022-09-13T22:04:18.014Z,85.63
2022-09-13T22:06:41.615Z,84.88
2022-09-13T22:09:10.676Z,85.45
2022-09-13T22:11:39.241Z,85.68
2022-09-13T22:14:03.195Z,85.57
2022-09-13T22:16:28.842Z,85.82
2022-09-13T22:18:55.537Z,85.55
2022-09-13T22:21:24.680Z,85.05
2022-09-13T22:23:49.082Z,85.40
2022-09-13T22:26:19.744Z,86.21
2022-09-13T22:28:43.823Z,84.86
2022-09-13T22:31:09.954Z,84.99
2022-09-13T22:33:34.237Z,85.40
2022-09-13T22:36:02.205Z,84.98
2022-09-13T22:38:25.881Z,85.45
2022-09-13T22:40:56.703Z,84.74
2022-09-13T22:43:21.639Z,85.64
2022-09-13T22:45:45.199Z,84.89
2022-09-13T22:48:12.384Z,87.40
2022-09-13T22:50:36.111Z,87.29
2022-09-13T22:52:59.659Z,87.27
2022-09-13T22:55:23.180Z,86.69
2022-09-13T22:57:46.779Z,86.38
2022-09-13T23:00:14.211Z,86.34
2022-09-13T23:02:37.849Z,85.98
2022-09-13T23:05:01.382Z,85.70
2022-09-13T23:07:25.362Z,86.46
2022-09-13T23:09:49.230Z,85.40
2022-09-13T23:12:12.790Z,86.30
2022-09-13T23:14:36.351Z,85.44
2022-09-13T23:17:01.392Z,85.32
2022-09-13T23:19:28.156Z,86.20
2022-09-13T23:21:54.109Z,87.12
2022-09-13T23:24:19.774Z,85.39
2022-09-13T23:26:44.742Z,85.77
2022-09-13T23:29:08.306Z,85.75
2022-09-13T23:31:34.686Z,86.67
2022-09-13T23:34:02.784Z,86.76
2022-09-13T23:36:29.125Z,87.46
2022-09-13T23:38:55.465Z,86.32
2022-09-13T23:41:19.683Z,86.22
2022-09-13T23:43:43.686Z,87.09
2022-09-13T23:46:07.929Z,86.64
2022-09-13T23:48:31.891Z,88.28
2022-09-13T23:51:05.212Z,87.25
2022-09-13T23:53:28.939Z,87.43
2022-09-13T23:55:52.432Z,86.36
2022-09-13T23:58:16.023Z,86.34
